sensor_id;sensor_type;location;lat;lon;timestamp;P1;durP1;ratioP1;P2;durP2;ratioP2
23628;SDS011;11991;57.150;-2.134;2023-01-01T00:00:45;3.33;;;2.17;;
23628;SDS011;11991;57.150;-2.134;2023-01-01T00:03:14;3.47;;;2.20;;
23628;SDS011;11991;57.150;-2.134;2023-01-01T00:05:41;4.27;;;2.40;;
23628;SDS011;11991;57.150;-2.134;2023-01-01T00:08:08;2.90;;;1.90;;
23628;SDS011;11991;57.150;-2.134;2023-01-01T00:10:37;4.20;;;2.63;;
23628;SDS011;11991;57.150;-2.134;2023-01-01T00:13:05;3.23;;;2.83;;
23628;SDS011;11991;57.150;-2.134;2023-01-01T00:15:32;5.60;;;3.80;;
23628;SDS011;11991;57.150;-2.134;2023-01-01T00:18:00;4.57;;;3.73;;
23628;SDS011;11991;57.150;-2.134;2023-01-01T00:20:27;4.37;;;3.23;;
23628;SDS011;11991;57.150;-2.134;2023-01-01T00:23:00;4.83;;;3.70;;
23628;SDS011;11991;57.150;-2.134;2023-01-01T00:25:28;4.63;;;3.30;;
23628;SDS011;11991;57.150;-2.134;2023-01-01T00:27:58;5.70;;;4.10;;
23628;SDS011;11991;57.150;-2.134;2023-01-01T00:30:25;13.20;;;4.87;;
23628;SDS011;11991;57.150;-2.134;2023-01-01T00:32:53;5.47;;;4.07;;
23628;SDS011;11991;57.150;-2.134;2023-01-01T00:35:24;6.37;;;4.47;;
23628;SDS011;11991;57.150;-2.134;2023-01-01T00:37:52;5.63;;;4.17;;
23628;SDS011;11991;57.150;-2.134;2023-01-01T00:40:21;7.53;;;5.23;;
23628;SDS011;11991;57.150;-2.134;2023-01-01T00:42:48;6.10;;;4.57;;
23628;SDS011;11991;57.150;-2.134;2023-01-01T00:45:15;6.67;;;5.23;;
23628;SDS011;11991;57.150;-2.134;2023-01-01T00:47:48;10.80;;;6.80;;
23628;SDS011;11991;57.150;-2.134;2023-01-01T00:50:17;7.20;;;5.53;;
23628;SDS011;11991;57.150;-2.134;2023-01-01T00:52:45;6.27;;;4.97;;
23628;SDS011;11991;57.150;-2.134;2023-01-01T00:55:14;7.40;;;5.37;;
23628;SDS011;11991;57.150;-2.134;2023-01-01T00:57:42;13.03;;;8.23;;
23628;SDS011;11991;57.150;-2.134;2023-01-01T01:00:09;12.23;;;8.73;;
23628;SDS011;11991;57.150;-2.134;2023-01-01T01:02:37;10.07;;;7.43;;
23628;SDS011;11991;57.150;-2.134;2023-01-01T01:05:05;14.60;;;10.30;;
23628;SDS011;11991;57.150;-2.134;2023-01-01T01:07:36;8.83;;;7.43;;
23628;SDS011;11991;57.150;-2.134;2023-01-01T01:10:04;11.87;;;8.10;;
23628;SDS011;11991;57.150;-2.134;2023-01-01T01:12:33;17.90;;;13.53;;
23628;SDS011;11991;57.150;-2.134;2023-01-01T01:15:01;17.23;;;11.97;;
23628;SDS011;11991;57.150;-2.134;2023-01-01T01:17:29;14.23;;;10.97;;
23628;SDS011;11991;57.150;-2.134;2023-01-01T01:19:57;11.33;;;8.17;;
23628;SDS011;11991;57.150;-2.134;2023-01-01T01:22:24;10.30;;;7.00;;
23628;SDS011;11991;57.150;-2.134;2023-01-01T01:24:54;9.47;;;7.00;;
23628;SDS011;11991;57.150;-2.134;2023-01-01T01:27:22;10.90;;;7.90;;
23628;SDS011;11991;57.150;-2.134;2023-01-01T01:29:50;9.27;;;5.93;;
23628;SDS011;11991;57.150;-2.134;2023-01-01T01:32:19;10.70;;;7.73;;
23628;SDS011;11991;57.150;-2.134;2023-01-01T01:34:46;13.63;;;9.00;;
23628;SDS011;11991;57.150;-2.134;2023-01-01T01:37:14;10.40;;;6.60;;
23628;SDS011;11991;57.150;-2.134;2023-01-01T01:39:41;5.53;;;4.63;;
23628;SDS011;11991;57.150;-2.134;2023-01-01T01:42:14;5.20;;;3.20;;
23628;SDS011;11991;57.150;-2.134;2023-01-01T01:45:00;4.57;;;3.47;;
23628;SDS011;11991;57.150;-2.134;2023-01-01T01:47:45;6.63;;;4.57;;
23628;SDS011;11991;57.150;-2.134;2023-01-01T01:50:24;6.30;;;4.10;;
23628;SDS011;11991;57.150;-2.134;2023-01-01T01:55:38;5.50;;;3.60;;
23628;SDS011;11991;57.150;-2.134;2023-01-01T01:58:10;3.30;;;2.80;;
23628;SDS011;11991;57.150;-2.134;2023-01-01T02:00:39;4.80;;;3.80;;
23628;SDS011;11991;57.150;-2.134;2023-01-01T02:03:18;3.20;;;2.67;;
23628;SDS011;11991;57.150;-2.134;2023-01-01T02:05:46;4.80;;;3.70;;
23628;SDS011;11991;57.150;-2.134;2023-01-01T02:08:16;5.33;;;3.50;;
23628;SDS011;11991;57.150;-2.134;2023-01-01T02:10:45;6.47;;;4.20;;
23628;SDS011;11991;57.150;-2.134;2023-01-01T02:13:13;3.33;;;2.50;;
23628;SDS011;11991;57.150;-2.134;2023-01-01T02:15:50;5.40;;;3.13;;
23628;SDS011;11991;57.150;-2.134;2023-01-01T02:18:42;4.50;;;2.03;;
23628;SDS011;11991;57.150;-2.134;2023-01-01T02:21:36;2.23;;;1.40;;
23628;SDS011;11991;57.150;-2.134;2023-01-01T02:24:24;2.23;;;1.10;;
23628;SDS011;11991;57.150;-2.134;2023-01-01T02:30:05;2.50;;;1.00;;
23628;SDS011;11991;57.150;-2.134;2023-01-01T02:32:36;1.00;;;0.90;;
23628;SDS011;11991;57.150;-2.134;2023-01-01T02:35:06;1.43;;;0.70;;
23628;SDS011;11991;57.150;-2.134;2023-01-01T02:38:22;1.97;;;0.80;;
23628;SDS011;11991;57.150;-2.134;2023-01-01T02:41:01;0.83;;;0.50;;
23628;SDS011;11991;57.150;-2.134;2023-01-01T02:43:32;0.50;;;0.50;;
23628;SDS011;11991;57.150;-2.134;2023-01-01T02:46:03;1.17;;;0.67;;
23628;SDS011;11991;57.150;-2.134;2023-01-01T02:48:39;1.13;;;0.80;;
23628;SDS011;11991;57.150;-2.134;2023-01-01T02:59:25;2.30;;;1.23;;
23628;SDS011;11991;57.150;-2.134;2023-01-01T03:05:21;0.77;;;0.70;;
23628;SDS011;11991;57.150;-2.134;2023-01-01T03:15:53;1.37;;;1.10;;
23628;SDS011;11991;57.150;-2.134;2023-01-01T03:18:28;2.33;;;1.60;;
23628;SDS011;11991;57.150;-2.134;2023-01-01T03:21:03;4.67;;;2.30;;
23628;SDS011;11991;57.150;-2.134;2023-01-01T03:23:34;1.67;;;1.27;;
23628;SDS011;11991;57.150;-2.134;2023-01-01T03:26:14;1.00;;;0.90;;
23628;SDS011;11991;57.150;-2.134;2023-01-01T03:28:53;1.37;;;0.93;;
23628;SDS011;11991;57.150;-2.134;2023-01-01T03:31:24;1.27;;;0.97;;
23628;SDS011;11991;57.150;-2.134;2023-01-01T03:34:02;2.73;;;1.07;;
23628;SDS011;11991;57.150;-2.134;2023-01-01T03:36:34;0.80;;;0.70;;
23628;SDS011;11991;57.150;-2.134;2023-01-01T03:39:08;2.47;;;0.70;;
23628;SDS011;11991;57.150;-2.134;2023-01-01T03:41:55;0.50;;;0.50;;
23628;SDS011;11991;57.150;-2.134;2023-01-01T03:44:32;1.00;;;0.50;;
23628;SDS011;11991;57.150;-2.134;2023-01-01T03:47:02;1.17;;;0.80;;
23628;SDS011;11991;57.150;-2.134;2023-01-01T03:49:31;4.23;;;2.00;;
23628;SDS011;11991;57.150;-2.134;2023-01-01T03:52:20;4.83;;;2.13;;
23628;SDS011;11991;57.150;-2.134;2023-01-01T04:00:32;3.03;;;1.87;;
23628;SDS011;11991;57.150;-2.134;2023-01-01T04:05:47;1.43;;;0.60;;
23628;SDS011;11991;57.150;-2.134;2023-01-01T04:08:16;1.07;;;0.60;;
23628;SDS011;11991;57.150;-2.134;2023-01-01T04:10:45;0.77;;;0.50;;
23628;SDS011;11991;57.150;-2.134;2023-01-01T04:13:23;0.87;;;0.60;;
23628;SDS011;11991;57.150;-2.134;2023-01-01T04:15:50;2.30;;;0.70;;
23628;SDS011;11991;57.150;-2.134;2023-01-01T04:18:17;1.00;;;0.43;;
23628;SDS011;11991;57.150;-2.134;2023-01-01T04:20:45;1.30;;;0.47;;
23628;SDS011;11991;57.150;-2.134;2023-01-01T04:23:12;0.50;;;0.50;;
23628;SDS011;11991;57.150;-2.134;2023-01-01T04:25:39;0.40;;;0.40;;
23628;SDS011;11991;57.150;-2.134;2023-01-01T04:28:06;0.70;;;0.50;;
23628;SDS011;11991;57.150;-2.134;2023-01-01T04:30:34;0.90;;;0.70;;
23628;SDS011;11991;57.150;-2.134;2023-01-01T04:32:59;1.13;;;0.83;;
23628;SDS011;11991;57.150;-2.134;2023-01-01T04:35:27;2.37;;;1.00;;
23628;SDS011;11991;57.150;-2.134;2023-01-01T04:37:54;1.43;;;0.60;;
23628;SDS011;11991;57.150;-2.134;2023-01-01T04:40:21;0.93;;;0.70;;
23628;SDS011;11991;57.150;-2.134;2023-01-01T04:42:51;0.70;;;0.50;;
23628;SDS011;11991;57.150;-2.134;2023-01-01T04:45:19;0.60;;;0.60;;
23628;SDS011;11991;57.150;-2.134;2023-01-01T04:47:47;0.67;;;0.60;;
23628;SDS011;11991;57.150;-2.134;2023-01-01T04:50:14;1.30;;;0.70;;
23628;SDS011;11991;57.150;-2.134;2023-01-01T04:52:41;0.83;;;0.60;;
23628;SDS011;11991;57.150;-2.134;2023-01-01T04:55:08;1.57;;;0.60;;
23628;SDS011;11991;57.150;-2.134;2023-01-01T04:57:35;0.60;;;0.57;;
23628;SDS011;11991;57.150;-2.134;2023-01-01T05:00:03;0.83;;;0.80;;
23628;SDS011;11991;57.150;-2.134;2023-01-01T05:02:31;1.30;;;0.70;;
23628;SDS011;11991;57.150;-2.134;2023-01-01T05:04:58;1.80;;;0.87;;
23628;SDS011;11991;57.150;-2.134;2023-01-01T05:07:25;0.97;;;0.70;;
23628;SDS011;11991;57.150;-2.134;2023-01-01T05:09:52;2.03;;;0.70;;
23628;SDS011;11991;57.150;-2.134;2023-01-01T05:12:19;1.10;;;0.70;;
23628;SDS011;11991;57.150;-2.134;2023-01-01T05:14:46;0.60;;;0.60;;
23628;SDS011;11991;57.150;-2.134;2023-01-01T05:17:14;1.30;;;0.70;;
23628;SDS011;11991;57.150;-2.134;2023-01-01T05:19:41;0.67;;;0.67;;
23628;SDS011;11991;57.150;-2.134;2023-01-01T05:22:08;1.00;;;0.50;;
23628;SDS011;11991;57.150;-2.134;2023-01-01T05:24:36;0.80;;;0.50;;
23628;SDS011;11991;57.150;-2.134;2023-01-01T05:27:04;0.63;;;0.60;;
23628;SDS011;11991;57.150;-2.134;2023-01-01T05:29:31;1.20;;;0.57;;
23628;SDS011;11991;57.150;-2.134;2023-01-01T05:31:58;1.83;;;0.80;;
23628;SDS011;11991;57.150;-2.134;2023-01-01T05:34:26;1.50;;;0.60;;
23628;SDS011;11991;57.150;-2.134;2023-01-01T05:36:53;1.10;;;0.50;;
23628;SDS011;11991;57.150;-2.134;2023-01-01T05:39:22;1.13;;;0.40;;
23628;SDS011;11991;57.150;-2.134;2023-01-01T05:41:49;0.93;;;0.50;;
23628;SDS011;11991;57.150;-2.134;2023-01-01T05:44:17;0.47;;;0.47;;
23628;SDS011;11991;57.150;-2.134;2023-01-01T05:46:45;0.90;;;0.40;;
23628;SDS011;11991;57.150;-2.134;2023-01-01T05:49:12;1.07;;;0.83;;
23628;SDS011;11991;57.150;-2.134;2023-01-01T05:51:40;1.13;;;0.50;;
23628;SDS011;11991;57.150;-2.134;2023-01-01T05:54:06;1.20;;;0.60;;
23628;SDS011;11991;57.150;-2.134;2023-01-01T05:56:37;1.47;;;0.50;;
23628;SDS011;11991;57.150;-2.134;2023-01-01T05:59:04;2.00;;;0.60;;
23628;SDS011;11991;57.150;-2.134;2023-01-01T06:01:32;0.40;;;0.40;;
23628;SDS011;11991;57.150;-2.134;2023-01-01T06:04:10;0.80;;;0.50;;
23628;SDS011;11991;57.150;-2.134;2023-01-01T06:06:37;0.50;;;0.50;;
23628;SDS011;11991;57.150;-2.134;2023-01-01T06:09:05;1.17;;;0.50;;
23628;SDS011;11991;57.150;-2.134;2023-01-01T06:11:32;0.40;;;0.40;;
23628;SDS011;11991;57.150;-2.134;2023-01-01T06:14:00;1.60;;;0.77;;
23628;SDS011;11991;57.150;-2.134;2023-01-01T06:16:28;0.77;;;0.50;;
23628;SDS011;11991;57.150;-2.134;2023-01-01T06:18:56;1.93;;;0.83;;
23628;SDS011;11991;57.150;-2.134;2023-01-01T06:21:25;0.60;;;0.50;;
23628;SDS011;11991;57.150;-2.134;2023-01-01T06:23:54;2.07;;;1.13;;
23628;SDS011;11991;57.150;-2.134;2023-01-01T06:26:24;1.83;;;0.60;;
23628;SDS011;11991;57.150;-2.134;2023-01-01T06:28:55;1.87;;;0.93;;
23628;SDS011;11991;57.150;-2.134;2023-01-01T06:31:23;1.10;;;0.50;;
23628;SDS011;11991;57.150;-2.134;2023-01-01T06:33:52;2.07;;;0.67;;
23628;SDS011;11991;57.150;-2.134;2023-01-01T06:36:20;0.33;;;0.33;;
23628;SDS011;11991;57.150;-2.134;2023-01-01T06:38:50;0.93;;;0.53;;
23628;SDS011;11991;57.150;-2.134;2023-01-01T06:41:20;0.37;;;0.37;;
23628;SDS011;11991;57.150;-2.134;2023-01-01T06:43:51;0.40;;;0.40;;
23628;SDS011;11991;57.150;-2.134;2023-01-01T06:46:31;1.07;;;0.40;;
23628;SDS011;11991;57.150;-2.134;2023-01-01T06:49:01;1.17;;;0.67;;
23628;SDS011;11991;57.150;-2.134;2023-01-01T06:51:36;0.83;;;0.40;;
23628;SDS011;11991;57.150;-2.134;2023-01-01T06:54:05;0.53;;;0.40;;
23628;SDS011;11991;57.150;-2.134;2023-01-01T06:56:33;2.00;;;0.60;;
23628;SDS011;11991;57.150;-2.134;2023-01-01T06:59:02;0.33;;;0.33;;
23628;SDS011;11991;57.150;-2.134;2023-01-01T07:01:30;0.60;;;0.40;;
23628;SDS011;11991;57.150;-2.134;2023-01-01T07:03:59;0.53;;;0.40;;
23628;SDS011;11991;57.150;-2.134;2023-01-01T07:06:30;0.50;;;0.50;;
23628;SDS011;11991;57.150;-2.134;2023-01-01T07:08:58;0.63;;;0.50;;
23628;SDS011;11991;57.150;-2.134;2023-01-01T07:11:26;3.30;;;0.50;;
23628;SDS011;11991;57.150;-2.134;2023-01-01T07:13:54;2.28;;;0.80;;
23628;SDS011;11991;57.150;-2.134;2023-01-01T07:16:21;1.00;;;0.50;;
23628;SDS011;11991;57.150;-2.134;2023-01-01T07:18:49;1.53;;;0.60;;
23628;SDS011;11991;57.150;-2.134;2023-01-01T07:23:59;1.57;;;0.43;;
23628;SDS011;11991;57.150;-2.134;2023-01-01T07:26:29;1.30;;;0.80;;
23628;SDS011;11991;57.150;-2.134;2023-01-01T07:28:58;0.70;;;0.70;;
23628;SDS011;11991;57.150;-2.134;2023-01-01T07:31:37;0.50;;;0.50;;
23628;SDS011;11991;57.150;-2.134;2023-01-01T07:34:06;0.50;;;0.50;;
23628;SDS011;11991;57.150;-2.134;2023-01-01T07:36:35;1.60;;;0.60;;
23628;SDS011;11991;57.150;-2.134;2023-01-01T07:39:03;1.77;;;0.83;;
23628;SDS011;11991;57.150;-2.134;2023-01-01T07:41:31;0.73;;;0.70;;
23628;SDS011;11991;57.150;-2.134;2023-01-01T07:43:58;0.50;;;0.50;;
23628;SDS011;11991;57.150;-2.134;2023-01-01T07:46:25;0.60;;;0.60;;
23628;SDS011;11991;57.150;-2.134;2023-01-01T07:48:53;0.97;;;0.50;;
23628;SDS011;11991;57.150;-2.134;2023-01-01T07:51:20;0.70;;;0.60;;
23628;SDS011;11991;57.150;-2.134;2023-01-01T07:53:48;0.57;;;0.50;;
23628;SDS011;11991;57.150;-2.134;2023-01-01T07:56:15;0.60;;;0.60;;
23628;SDS011;11991;57.150;-2.134;2023-01-01T07:58:42;0.57;;;0.57;;
23628;SDS011;11991;57.150;-2.134;2023-01-01T08:01:10;1.00;;;0.60;;
23628;SDS011;11991;57.150;-2.134;2023-01-01T08:03:40;0.93;;;0.60;;
23628;SDS011;11991;57.150;-2.134;2023-01-01T08:06:08;1.80;;;0.60;;
23628;SDS011;11991;57.150;-2.134;2023-01-01T08:08:37;1.77;;;0.60;;
23628;SDS011;11991;57.150;-2.134;2023-01-01T08:11:05;1.10;;;0.70;;
23628;SDS011;11991;57.150;-2.134;2023-01-01T08:13:32;0.80;;;0.80;;
23628;SDS011;11991;57.150;-2.134;2023-01-01T08:15:59;0.80;;;0.57;;
23628;SDS011;11991;57.150;-2.134;2023-01-01T08:18:28;1.10;;;0.80;;
23628;SDS011;11991;57.150;-2.134;2023-01-01T08:20:55;0.90;;;0.90;;
23628;SDS011;11991;57.150;-2.134;2023-01-01T08:23:23;1.10;;;0.90;;
23628;SDS011;11991;57.150;-2.134;2023-01-01T08:25:50;1.53;;;1.30;;
23628;SDS011;11991;57.150;-2.134;2023-01-01T08:28:17;1.97;;;1.40;;
23628;SDS011;11991;57.150;-2.134;2023-01-01T08:30:45;2.63;;;1.43;;
23628;SDS011;11991;57.150;-2.134;2023-01-01T08:33:12;1.00;;;0.80;;
23628;SDS011;11991;57.150;-2.134;2023-01-01T08:35:40;1.20;;;1.00;;
23628;SDS011;11991;57.150;-2.134;2023-01-01T08:38:14;1.80;;;1.20;;
23628;SDS011;11991;57.150;-2.134;2023-01-01T08:40:41;1.30;;;1.03;;
23628;SDS011;11991;57.150;-2.134;2023-01-01T08:43:09;0.80;;;0.80;;
23628;SDS011;11991;57.150;-2.134;2023-01-01T08:45:36;2.13;;;1.20;;
23628;SDS011;11991;57.150;-2.134;2023-01-01T08:48:03;1.00;;;0.90;;
23628;SDS011;11991;57.150;-2.134;2023-01-01T08:50:31;1.13;;;0.83;;
23628;SDS011;11991;57.150;-2.134;2023-01-01T08:52:58;0.83;;;0.83;;
23628;SDS011;11991;57.150;-2.134;2023-01-01T08:55:26;1.10;;;0.90;;
23628;SDS011;11991;57.150;-2.134;2023-01-01T08:57:53;1.30;;;0.93;;
23628;SDS011;11991;57.150;-2.134;2023-01-01T09:00:20;0.80;;;0.80;;
23628;SDS011;11991;57.150;-2.134;2023-01-01T09:02:48;1.20;;;0.90;;
23628;SDS011;11991;57.150;-2.134;2023-01-01T09:05:15;0.90;;;0.70;;
23628;SDS011;11991;57.150;-2.134;2023-01-01T09:07:43;1.20;;;1.00;;
23628;SDS011;11991;57.150;-2.134;2023-01-01T09:10:10;0.60;;;0.60;;
23628;SDS011;11991;57.150;-2.134;2023-01-01T09:12:37;0.50;;;0.50;;
23628;SDS011;11991;57.150;-2.134;2023-01-01T09:15:05;0.97;;;0.57;;
23628;SDS011;11991;57.150;-2.134;2023-01-01T09:17:32;1.60;;;0.90;;
23628;SDS011;11991;57.150;-2.134;2023-01-01T09:20:00;0.70;;;0.70;;
23628;SDS011;11991;57.150;-2.134;2023-01-01T09:22:27;0.90;;;0.90;;
23628;SDS011;11991;57.150;-2.134;2023-01-01T09:24:54;1.20;;;1.03;;
23628;SDS011;11991;57.150;-2.134;2023-01-01T09:27:30;1.00;;;0.80;;
23628;SDS011;11991;57.150;-2.134;2023-01-01T09:29:57;0.70;;;0.63;;
23628;SDS011;11991;57.150;-2.134;2023-01-01T09:32:28;1.23;;;0.90;;
23628;SDS011;11991;57.150;-2.134;2023-01-01T09:34:55;1.10;;;1.00;;
23628;SDS011;11991;57.150;-2.134;2023-01-01T09:37:23;1.27;;;0.73;;
23628;SDS011;11991;57.150;-2.134;2023-01-01T09:39:51;0.60;;;0.60;;
23628;SDS011;11991;57.150;-2.134;2023-01-01T09:44:55;1.47;;;1.00;;
23628;SDS011;11991;57.150;-2.134;2023-01-01T09:47:46;0.80;;;0.80;;
23628;SDS011;11991;57.150;-2.134;2023-01-01T09:50:18;1.20;;;1.10;;
23628;SDS011;11991;57.150;-2.134;2023-01-01T09:52:58;0.53;;;0.53;;
23628;SDS011;11991;57.150;-2.134;2023-01-01T09:58:20;0.90;;;0.80;;
23628;SDS011;11991;57.150;-2.134;2023-01-01T10:00:53;1.50;;;1.20;;
23628;SDS011;11991;57.150;-2.134;2023-01-01T10:03:31;1.10;;;1.00;;
23628;SDS011;11991;57.150;-2.134;2023-01-01T10:06:05;1.13;;;0.95;;
23628;SDS011;11991;57.150;-2.134;2023-01-01T10:08:42;0.97;;;0.97;;
23628;SDS011;11991;57.150;-2.134;2023-01-01T10:13:56;1.67;;;1.07;;
23628;SDS011;11991;57.150;-2.134;2023-01-01T10:22:05;1.03;;;0.93;;
23628;SDS011;11991;57.150;-2.134;2023-01-01T10:24:37;0.73;;;0.73;;
23628;SDS011;11991;57.150;-2.134;2023-01-01T10:27:25;1.37;;;1.00;;
23628;SDS011;11991;57.150;-2.134;2023-01-01T10:29:59;0.97;;;0.87;;
23628;SDS011;11991;57.150;-2.134;2023-01-01T10:32:34;1.00;;;0.90;;
23628;SDS011;11991;57.150;-2.134;2023-01-01T10:35:04;1.20;;;1.00;;
23628;SDS011;11991;57.150;-2.134;2023-01-01T10:37:40;0.87;;;0.80;;
23628;SDS011;11991;57.150;-2.134;2023-01-01T10:40:21;0.70;;;0.70;;
23628;SDS011;11991;57.150;-2.134;2023-01-01T10:42:59;0.60;;;0.60;;
23628;SDS011;11991;57.150;-2.134;2023-01-01T10:45:32;0.90;;;0.90;;
23628;SDS011;11991;57.150;-2.134;2023-01-01T10:48:15;1.00;;;0.77;;
23628;SDS011;11991;57.150;-2.134;2023-01-01T10:50:52;0.60;;;0.60;;
23628;SDS011;11991;57.150;-2.134;2023-01-01T10:55:49;1.43;;;0.90;;
23628;SDS011;11991;57.150;-2.134;2023-01-01T11:06:31;0.93;;;0.60;;
23628;SDS011;11991;57.150;-2.134;2023-01-01T11:09:06;0.73;;;0.73;;
23628;SDS011;11991;57.150;-2.134;2023-01-01T11:11:45;0.50;;;0.50;;
23628;SDS011;11991;57.150;-2.134;2023-01-01T11:14:21;1.37;;;0.73;;
23628;SDS011;11991;57.150;-2.134;2023-01-01T11:16:53;0.47;;;0.47;;
23628;SDS011;11991;57.150;-2.134;2023-01-01T11:19:38;0.50;;;0.50;;
23628;SDS011;11991;57.150;-2.134;2023-01-01T11:23:08;0.40;;;0.40;;
23628;SDS011;11991;57.150;-2.134;2023-01-01T11:25:25;0.70;;;0.70;;
23628;SDS011;11991;57.150;-2.134;2023-01-01T11:28:16;0.80;;;0.70;;
23628;SDS011;11991;57.150;-2.134;2023-01-01T11:33:47;1.00;;;0.80;;
23628;SDS011;11991;57.150;-2.134;2023-01-01T11:36:26;0.63;;;0.60;;
23628;SDS011;11991;57.150;-2.134;2023-01-01T11:41:56;0.67;;;0.67;;
23628;SDS011;11991;57.150;-2.134;2023-01-01T11:44:45;2.87;;;1.60;;
23628;SDS011;11991;57.150;-2.134;2023-01-01T11:47:20;1.77;;;1.20;;
23628;SDS011;11991;57.150;-2.134;2023-01-01T11:52:46;1.03;;;0.80;;
23628;SDS011;11991;57.150;-2.134;2023-01-01T11:58:13;0.88;;;0.77;;
23628;SDS011;11991;57.150;-2.134;2023-01-01T12:00:46;0.75;;;0.60;;
23628;SDS011;11991;57.150;-2.134;2023-01-01T12:06:25;0.98;;;0.80;;
23628;SDS011;11991;57.150;-2.134;2023-01-01T12:11:50;2.95;;;1.05;;
23628;SDS011;11991;57.150;-2.134;2023-01-01T12:17:09;0.90;;;0.73;;
23628;SDS011;11991;57.150;-2.134;2023-01-01T12:22:17;1.10;;;1.00;;
23628;SDS011;11991;57.150;-2.134;2023-01-01T12:24:46;1.67;;;1.40;;
23628;SDS011;11991;57.150;-2.134;2023-01-01T12:43:26;5.97;;;3.70;;
23628;SDS011;11991;57.150;-2.134;2023-01-01T12:46:41;2.28;;;1.95;;
23628;SDS011;11991;57.150;-2.134;2023-01-01T12:52:15;1.73;;;1.30;;
23628;SDS011;11991;57.150;-2.134;2023-01-01T12:58:00;1.63;;;1.40;;
23628;SDS011;11991;57.150;-2.134;2023-01-01T13:00:38;1.30;;;1.08;;
23628;SDS011;11991;57.150;-2.134;2023-01-01T13:03:19;1.55;;;1.45;;
23628;SDS011;11991;57.150;-2.134;2023-01-01T13:05:50;2.05;;;1.67;;
23628;SDS011;11991;57.150;-2.134;2023-01-01T13:08:21;1.27;;;1.15;;
23628;SDS011;11991;57.150;-2.134;2023-01-01T13:10:49;1.88;;;1.20;;
23628;SDS011;11991;57.150;-2.134;2023-01-01T13:13:20;1.30;;;1.10;;
23628;SDS011;11991;57.150;-2.134;2023-01-01T13:15:51;1.23;;;1.08;;
23628;SDS011;11991;57.150;-2.134;2023-01-01T13:18:22;0.85;;;0.85;;
23628;SDS011;11991;57.150;-2.134;2023-01-01T13:45:31;2.50;;;2.15;;
23628;SDS011;11991;57.150;-2.134;2023-01-01T13:48:46;2.53;;;1.85;;
23628;SDS011;11991;57.150;-2.134;2023-01-01T13:51:51;2.42;;;1.95;;
23628;SDS011;11991;57.150;-2.134;2023-01-01T14:03:39;1.77;;;1.67;;
23628;SDS011;11991;57.150;-2.134;2023-01-01T14:06:11;1.80;;;1.50;;
23628;SDS011;11991;57.150;-2.134;2023-01-01T14:09:23;2.53;;;2.20;;
23628;SDS011;11991;57.150;-2.134;2023-01-01T14:11:51;3.47;;;2.88;;
23628;SDS011;11991;57.150;-2.134;2023-01-01T14:16:57;2.00;;;1.47;;
23628;SDS011;11991;57.150;-2.134;2023-01-01T14:19:26;2.23;;;1.73;;
23628;SDS011;11991;57.150;-2.134;2023-01-01T14:21:54;3.20;;;2.80;;
23628;SDS011;11991;57.150;-2.134;2023-01-01T14:24:22;2.23;;;1.93;;
23628;SDS011;11991;57.150;-2.134;2023-01-01T14:26:51;2.77;;;2.30;;
23628;SDS011;11991;57.150;-2.134;2023-01-01T14:29:27;3.47;;;2.83;;
23628;SDS011;11991;57.150;-2.134;2023-01-01T14:31:56;4.40;;;3.20;;
23628;SDS011;11991;57.150;-2.134;2023-01-01T14:36:59;4.20;;;2.97;;
23628;SDS011;11991;57.150;-2.134;2023-01-01T14:39:31;2.10;;;1.70;;
23628;SDS011;11991;57.150;-2.134;2023-01-01T14:42:07;3.47;;;2.50;;
23628;SDS011;11991;57.150;-2.134;2023-01-01T14:44:43;2.67;;;2.23;;
23628;SDS011;11991;57.150;-2.134;2023-01-01T14:47:26;3.50;;;3.20;;
23628;SDS011;11991;57.150;-2.134;2023-01-01T14:52:35;3.00;;;2.67;;
23628;SDS011;11991;57.150;-2.134;2023-01-01T14:55:02;2.37;;;1.80;;
23628;SDS011;11991;57.150;-2.134;2023-01-01T14:57:32;2.57;;;2.07;;
23628;SDS011;11991;57.150;-2.134;2023-01-01T15:00:03;1.50;;;1.38;;
23628;SDS011;11991;57.150;-2.134;2023-01-01T15:02:50;1.30;;;1.20;;
23628;SDS011;11991;57.150;-2.134;2023-01-01T15:05:31;2.20;;;2.00;;
23628;SDS011;11991;57.150;-2.134;2023-01-01T15:08:03;2.63;;;2.30;;
23628;SDS011;11991;57.150;-2.134;2023-01-01T15:10:35;3.40;;;2.80;;
23628;SDS011;11991;57.150;-2.134;2023-01-01T15:13:05;2.73;;;2.10;;
23628;SDS011;11991;57.150;-2.134;2023-01-01T15:21:09;4.00;;;3.10;;
23628;SDS011;11991;57.150;-2.134;2023-01-01T15:23:37;2.47;;;2.27;;
23628;SDS011;11991;57.150;-2.134;2023-01-01T15:26:06;2.40;;;2.20;;
23628;SDS011;11991;57.150;-2.134;2023-01-01T15:28:36;2.97;;;2.63;;
23628;SDS011;11991;57.150;-2.134;2023-01-01T15:31:08;5.30;;;4.10;;
23628;SDS011;11991;57.150;-2.134;2023-01-01T15:33:36;3.47;;;2.43;;
23628;SDS011;11991;57.150;-2.134;2023-01-01T15:36:03;2.70;;;2.07;;
23628;SDS011;11991;57.150;-2.134;2023-01-01T15:38:31;2.20;;;1.70;;
23628;SDS011;11991;57.150;-2.134;2023-01-01T15:41:19;3.40;;;2.60;;
23628;SDS011;11991;57.150;-2.134;2023-01-01T15:44:28;2.20;;;1.90;;
23628;SDS011;11991;57.150;-2.134;2023-01-01T15:47:10;4.07;;;2.90;;
23628;SDS011;11991;57.150;-2.134;2023-01-01T15:49:40;42.17;;;22.03;;
23628;SDS011;11991;57.150;-2.134;2023-01-01T15:52:22;21.07;;;11.17;;
23628;SDS011;11991;57.150;-2.134;2023-01-01T15:54:52;8.57;;;5.00;;
23628;SDS011;11991;57.150;-2.134;2023-01-01T15:57:20;4.90;;;3.33;;
23628;SDS011;11991;57.150;-2.134;2023-01-01T15:59:50;7.90;;;6.90;;
23628;SDS011;11991;57.150;-2.134;2023-01-01T16:04:58;3.93;;;3.40;;
23628;SDS011;11991;57.150;-2.134;2023-01-01T16:07:26;2.70;;;2.50;;
23628;SDS011;11991;57.150;-2.134;2023-01-01T16:09:54;2.87;;;2.10;;
23628;SDS011;11991;57.150;-2.134;2023-01-01T16:12:24;3.10;;;2.53;;
23628;SDS011;11991;57.150;-2.134;2023-01-01T16:14:51;2.30;;;1.87;;
23628;SDS011;11991;57.150;-2.134;2023-01-01T16:17:19;17.67;;;10.03;;
23628;SDS011;11991;57.150;-2.134;2023-01-01T16:19:46;7.23;;;5.57;;
23628;SDS011;11991;57.150;-2.134;2023-01-01T16:22:15;8.93;;;5.90;;
23628;SDS011;11991;57.150;-2.134;2023-01-01T16:24:43;3.40;;;2.83;;
23628;SDS011;11991;57.150;-2.134;2023-01-01T16:27:11;3.10;;;2.30;;
23628;SDS011;11991;57.150;-2.134;2023-01-01T16:29:39;5.13;;;4.63;;
23628;SDS011;11991;57.150;-2.134;2023-01-01T16:32:12;4.60;;;3.60;;
23628;SDS011;11991;57.150;-2.134;2023-01-01T16:34:45;7.00;;;6.30;;
23628;SDS011;11991;57.150;-2.134;2023-01-01T16:37:13;6.20;;;5.10;;
23628;SDS011;11991;57.150;-2.134;2023-01-01T16:39:42;3.70;;;2.60;;
23628;SDS011;11991;57.150;-2.134;2023-01-01T16:42:09;3.33;;;3.03;;
23628;SDS011;11991;57.150;-2.134;2023-01-01T16:44:39;5.23;;;3.97;;
23628;SDS011;11991;57.150;-2.134;2023-01-01T16:47:07;4.20;;;3.00;;
23628;SDS011;11991;57.150;-2.134;2023-01-01T16:49:36;8.67;;;6.47;;
23628;SDS011;11991;57.150;-2.134;2023-01-01T16:52:04;11.20;;;8.80;;
23628;SDS011;11991;57.150;-2.134;2023-01-01T16:54:31;8.00;;;5.20;;
23628;SDS011;11991;57.150;-2.134;2023-01-01T16:56:59;7.73;;;6.57;;
23628;SDS011;11991;57.150;-2.134;2023-01-01T16:59:26;3.97;;;3.53;;
23628;SDS011;11991;57.150;-2.134;2023-01-01T17:01:54;4.37;;;3.30;;
23628;SDS011;11991;57.150;-2.134;2023-01-01T17:04:21;3.17;;;2.83;;
23628;SDS011;11991;57.150;-2.134;2023-01-01T17:06:48;3.30;;;2.90;;
23628;SDS011;11991;57.150;-2.134;2023-01-01T17:09:15;2.83;;;2.53;;
23628;SDS011;11991;57.150;-2.134;2023-01-01T17:11:43;1.90;;;1.80;;
23628;SDS011;11991;57.150;-2.134;2023-01-01T17:14:11;3.10;;;2.50;;
23628;SDS011;11991;57.150;-2.134;2023-01-01T17:16:38;3.43;;;2.20;;
23628;SDS011;11991;57.150;-2.134;2023-01-01T17:19:06;2.80;;;2.43;;
23628;SDS011;11991;57.150;-2.134;2023-01-01T17:21:44;3.30;;;2.60;;
23628;SDS011;11991;57.150;-2.134;2023-01-01T17:24:12;3.90;;;3.00;;
23628;SDS011;11991;57.150;-2.134;2023-01-01T17:26:44;17.90;;;13.07;;
23628;SDS011;11991;57.150;-2.134;2023-01-01T17:29:16;9.17;;;7.13;;
23628;SDS011;11991;57.150;-2.134;2023-01-01T17:31:44;10.83;;;7.33;;
23628;SDS011;11991;57.150;-2.134;2023-01-01T17:34:11;12.40;;;8.33;;